Time;durP1;ratioP1;P1;durP2;ratioP2;P2;SDS_P1;SDS_P2;PMS_P1;PMS_P2;Temp;Humidity;BMP_temperature;BMP_pressure;BME280_temperature;BME280_humidity;BME280_pressure;Samples;Min_cycle;Max_cycle;Signal;HPM_P1;HPM_P2
2021/03/05 00:02:23;;;;;;;77.40;46.13;;;7.50;62.40;;;;;;4982531;28;20063;-69
2021/03/05 00:04:49;;;;;;;78.57;46.22;;;7.50;63.10;;;;;;4979941;28;20054;-68
2021/03/05 00:07:15;;;;;;;70.65;41.88;;;7.50;63.00;;;;;;4982562;28;20026;-73
2021/03/05 00:09:41;;;;;;;93.03;50.03;;;7.50;63.20;;;;;;4980699;28;20027;-70
2021/03/05 00:12:10;;;;;;;107.32;54.58;;;7.60;63.10;;;;;;4979376;28;20026;-67
2021/03/05 00:14:36;;;;;;;81.85;48.00;;;7.50;63.00;;;;;;4982415;28;20078;-69
2021/03/05 00:17:02;;;;;;;109.88;60.10;;;7.60;62.70;;;;;;4977951;28;20110;-67
2021/03/05 00:19:28;;;;;;;99.70;54.63;;;7.60;63.40;;;;;;4980563;28;20026;-74
2021/03/05 00:21:54;;;;;;;77.68;43.60;;;7.80;62.90;;;;;;4981808;28;20070;-74
2021/03/05 00:24:20;;;;;;;85.13;47.53;;;7.70;61.80;;;;;;4983139;28;20556;-70
2021/03/05 00:26:46;;;;;;;95.72;52.80;;;7.70;62.90;;;;;;4981720;28;20496;-74
2021/03/05 00:29:11;;;;;;;109.35;60.28;;;7.70;63.20;;;;;;4981295;28;20477;-71
2021/03/05 00:31:37;;;;;;;112.53;64.30;;;7.70;63.20;;;;;;4981939;28;20029;-70
2021/03/05 00:34:03;;;;;;;112.60;63.80;;;7.80;62.80;;;;;;4980406;28;20050;-68
2021/03/05 00:36:29;;;;;;;99.97;58.17;;;7.80;62.00;;;;;;4980990;28;20026;-75
2021/03/05 00:38:55;;;;;;;110.57;62.88;;;7.80;63.10;;;;;;4980967;28;20444;-71
2021/03/05 00:41:21;;;;;;;86.40;49.75;;;7.80;62.30;;;;;;4978964;28;20023;-70
2021/03/05 00:43:47;;;;;;;91.00;51.55;;;7.90;62.50;;;;;;4981928;28;20030;-68
2021/03/05 00:46:13;;;;;;;77.63;44.15;;;7.80;62.40;;;;;;4974847;28;20447;-73
2021/03/05 00:48:39;;;;;;;64.95;40.50;;;7.80;62.50;;;;;;4979124;28;20046;-75
2021/03/05 00:51:05;;;;;;;74.22;45.22;;;7.90;62.70;;;;;;4978479;28;20054;-74
2021/03/05 00:53:31;;;;;;;104.55;61.60;;;7.90;62.40;;;;;;4979827;28;20058;-70
2021/03/05 00:55:58;;;;;;;107.10;68.22;;;7.90;62.00;;;;;;4980285;28;20051;-71
2021/03/05 00:58:24;;;;;;;84.72;53.85;;;7.90;62.20;;;;;;4978980;28;20033;-70
2021/03/05 01:00:49;;;;;;;83.82;53.78;;;7.90;60.30;;;;;;4981008;28;20117;-69
2021/03/05 01:03:15;;;;;;;59.40;37.15;;;8.00;62.40;;;;;;4979889;28;20407;-74
2021/03/05 01:05:41;;;;;;;57.05;38.63;;;7.90;63.50;;;;;;4980189;28;20085;-68
2021/03/05 01:08:07;;;;;;;58.20;38.85;;;7.80;63.20;;;;;;4978981;28;20445;-68
2021/03/05 01:10:34;;;;;;;69.63;42.95;;;7.70;64.50;;;;;;4981166;28;20030;-74
2021/03/05 01:12:59;;;;;;;66.05;41.83;;;7.50;63.10;;;;;;4976654;28;20030;-69
2021/03/05 01:15:26;;;;;;;52.10;32.38;;;7.40;62.80;;;;;;4975783;28;20023;-75
2021/03/05 01:17:52;;;;;;;50.88;32.53;;;7.40;63.40;;;;;;4979384;28;20023;-72
2021/03/05 01:20:19;;;;;;;48.65;30.30;;;7.30;65.10;;;;;;4978472;28;20073;-70
2021/03/05 01:22:45;;;;;;;49.55;29.55;;;7.30;64.40;;;;;;4980660;28;20437;-68
2021/03/05 01:25:19;;;;;;;49.72;29.70;;;7.20;64.80;;;;;;4980018;28;20639;-74
2021/03/05 01:27:45;;;;;;;45.58;27.75;;;7.30;64.70;;;;;;4980800;28;20089;-71
2021/03/05 01:30:12;;;;;;;51.30;27.80;;;7.20;63.90;;;;;;4979756;28;20031;-67
2021/03/05 01:32:38;;;;;;;52.53;28.40;;;7.10;64.10;;;;;;4979028;28;20030;-73
2021/03/05 01:35:14;;;;;;;43.40;27.90;;;7.00;64.60;;;;;;4978844;28;20026;-72
2021/03/05 01:37:40;;;;;;;49.42;28.77;;;7.00;65.20;;;;;;4979099;28;20473;-71
2021/03/05 01:40:13;;;;;;;52.45;31.30;;;6.90;66.10;;;;;;4979685;28;20511;-71
2021/03/05 01:42:40;;;;;;;46.50;29.20;;;7.00;66.20;;;;;;4979216;28;20031;-74
2021/03/05 01:45:15;;;;;;;52.55;30.08;;;6.80;68.80;;;;;;4979587;28;20018;-68
2021/03/05 01:47:43;;;;;;;51.65;32.90;;;6.80;68.80;;;;;;4978595;28;20042;-70
2021/03/05 01:50:20;;;;;;;55.55;34.13;;;6.60;67.60;;;;;;4980222;28;20049;-74
2021/03/05 01:52:47;;;;;;;60.22;37.25;;;6.60;68.00;;;;;;4982143;28;20517;-74
2021/03/05 01:55:14;;;;;;;65.10;39.58;;;6.60;68.90;;;;;;4986244;28;20045;-74
2021/03/05 01:57:40;;;;;;;65.65;41.13;;;6.70;69.30;;;;;;4983622;28;20053;-70
2021/03/05 02:00:08;;;;;;;73.53;45.33;;;6.50;68.50;;;;;;4983669;28;20545;-74
2021/03/05 02:02:34;;;;;;;75.25;46.50;;;6.40;69.60;;;;;;4982754;28;20027;-74
2021/03/05 02:05:00;;;;;;;78.95;48.05;;;6.40;69.60;;;;;;4983166;28;20030;-74
2021/03/05 02:07:26;;;;;;;89.05;50.28;;;6.40;71.10;;;;;;4983504;28;20027;-75
2021/03/05 02:09:52;;;;;;;87.47;51.38;;;6.40;70.90;;;;;;4982939;28;20018;-74
2021/03/05 02:12:18;;;;;;;87.13;52.33;;;6.50;71.60;;;;;;4981279;28;20425;-75
2021/03/05 02:14:45;;;;;;;81.50;50.25;;;6.50;71.60;;;;;;4984542;28;20433;-74
2021/03/05 02:17:16;;;;;;;83.68;49.72;;;6.50;71.60;;;;;;4983509;28;20027;-69
2021/03/05 02:20:01;;;;;;;85.45;50.38;;;6.50;71.20;;;;;;4980982;28;20131;-74
2021/03/05 02:22:45;;;;;;;79.70;49.47;;;6.60;71.90;;;;;;4983811;28;20114;-74
2021/03/05 02:25:18;;;;;;;87.82;50.83;;;6.50;72.50;;;;;;4983288;28;20045;-72
2021/03/05 02:28:17;;;;;;;94.25;54.17;;;6.50;73.00;;;;;;4983393;28;20025;-74
2021/03/05 02:31:04;;;;;;;103.82;55.45;;;6.20;74.60;;;;;;4984304;28;20026;-70
2021/03/05 02:33:48;;;;;;;101.65;55.25;;;6.20;74.50;;;;;;4983255;28;20066;-70
2021/03/05 02:36:26;;;;;;;98.90;50.33;;;6.10;74.90;;;;;;4982216;28;20029;-68
2021/03/05 02:39:03;;;;;;;94.45;51.45;;;6.10;72.40;;;;;;4982469;28;20109;-67
2021/03/05 02:41:30;;;;;;;97.15;51.95;;;6.00;72.80;;;;;;4984280;28;20015;-70
2021/03/05 02:43:58;;;;;;;93.10;52.83;;;6.00;73.60;;;;;;4982052;28;20081;-72
2021/03/05 02:46:26;;;;;;;94.88;53.78;;;6.00;73.80;;;;;;4982173;28;20051;-68
2021/03/05 02:48:57;;;;;;;90.85;52.15;;;6.00;74.60;;;;;;4984175;28;20058;-70
2021/03/05 02:51:25;;;;;;;95.00;53.38;;;5.80;75.30;;;;;;4981752;28;20023;-70
2021/03/05 02:53:52;;;;;;;93.00;52.80;;;5.90;75.20;;;;;;4982939;28;20031;-67
2021/03/05 02:56:20;;;;;;;97.38;54.85;;;6.00;75.80;;;;;;4978894;28;20030;-70
2021/03/05 02:58:49;;;;;;;99.63;55.85;;;6.00;75.20;;;;;;4976211;28;20122;-69
2021/03/05 03:01:17;;;;;;;98.93;56.00;;;6.00;74.00;;;;;;4980435;28;20381;-71
2021/03/05 03:03:44;;;;;;;92.97;55.30;;;6.00;74.40;;;;;;4981621;28;20540;-73
2021/03/05 03:06:11;;;;;;;98.60;55.72;;;6.00;74.20;;;;;;4982318;28;20408;-70
2021/03/05 03:08:38;;;;;;;96.28;54.75;;;6.00;73.50;;;;;;4981967;28;20496;-75
2021/03/05 03:11:05;;;;;;;97.43;56.28;;;6.10;73.20;;;;;;4982998;28;20030;-74
2021/03/05 03:13:35;;;;;;;95.35;55.17;;;6.10;73.30;;;;;;4981887;28;20043;-72
2021/03/05 03:16:02;;;;;;;101.90;56.80;;;6.10;74.40;;;;;;4980333;28;20097;-70
2021/03/05 03:18:29;;;;;;;98.80;56.42;;;6.00;73.30;;;;;;4981952;28;20023;-74
2021/03/05 03:21:00;;;;;;;94.10;54.67;;;6.00;74.30;;;;;;4980841;28;20022;-71
2021/03/05 03:23:26;;;;;;;94.70;54.33;;;6.00;75.00;;;;;;4981024;28;20346;-70
2021/03/05 03:25:53;;;;;;;93.38;54.85;;;6.00;74.60;;;;;;4981406;28;19999;-73
2021/03/05 03:28:20;;;;;;;102.35;56.13;;;5.90;76.20;;;;;;4981892;28;20027;-73
2021/03/05 03:30:47;;;;;;;102.38;57.97;;;5.90;75.80;;;;;;4982855;28;20081;-74
2021/03/05 03:33:13;;;;;;;113.05;60.92;;;5.80;75.30;;;;;;4980795;28;20026;-74
2021/03/05 03:35:40;;;;;;;110.93;63.50;;;5.80;75.00;;;;;;4980343;28;20023;-73
2021/03/05 03:38:08;;;;;;;118.07;63.00;;;5.80;74.80;;;;;;4980329;28;20054;-74
2021/03/05 03:40:35;;;;;;;117.80;64.15;;;5.70;76.80;;;;;;4982088;28;20070;-67
2021/03/05 03:43:02;;;;;;;118.05;63.03;;;5.50;76.20;;;;;;4979229;28;20023;-68
2021/03/05 03:45:30;;;;;;;118.93;63.72;;;5.40;76.70;;;;;;4983531;28;20022;-68
2021/03/05 03:47:58;;;;;;;111.43;62.40;;;5.50;77.00;;;;;;4978659;28;20074;-67
2021/03/05 03:51:03;;;;;;;116.20;62.88;;;5.50;77.90;;;;;;4980679;28;20508;-74
2021/03/05 03:53:31;;;;;;;109.63;61.95;;;5.60;77.30;;;;;;4980493;28;20043;-70
2021/03/05 03:55:57;;;;;;;117.07;61.95;;;5.60;77.50;;;;;;4982102;28;20019;-74
2021/03/05 03:58:26;;;;;;;109.68;62.58;;;5.60;77.50;;;;;;4981602;28;20030;-73
2021/03/05 04:00:55;;;;;;;113.68;61.40;;;5.60;78.20;;;;;;4980423;28;20369;-71
2021/03/05 04:03:25;;;;;;;117.82;62.67;;;5.60;77.80;;;;;;4982152;28;20033;-72
2021/03/05 04:05:53;;;;;;;118.35;63.40;;;5.60;78.10;;;;;;4981392;28;20093;-72
2021/03/05 04:08:20;;;;;;;119.80;65.97;;;5.60;81.90;;;;;;4981026;28;20037;-67
2021/03/05 04:10:47;;;;;;;119.70;67.40;;;5.70;81.60;;;;;;4982029;28;20015;-72
2021/03/05 04:13:14;;;;;;;125.97;66.70;;;5.50;77.70;;;;;;4981270;28;20023;-68
2021/03/05 04:15:41;;;;;;;124.75;66.28;;;5.50;78.00;;;;;;4979349;28;20382;-71
2021/03/05 04:18:07;;;;;;;118.70;65.20;;;5.40;78.90;;;;;;4979689;28;20033;-68
2021/03/05 04:20:37;;;;;;;124.18;65.15;;;5.50;79.70;;;;;;4978208;28;20034;-72
2021/03/05 04:23:08;;;;;;;126.10;67.68;;;5.30;79.40;;;;;;4982536;28;20027;-69
2021/03/05 04:25:35;;;;;;;116.32;66.32;;;5.30;79.50;;;;;;4981611;28;20006;-70
2021/03/05 04:28:01;;;;;;;123.30;66.55;;;5.20;79.40;;;;;;4979290;28;20018;-71
2021/03/05 04:30:27;;;;;;;124.38;67.55;;;5.20;80.20;;;;;;4982907;28;20045;-72
2021/03/05 04:32:53;;;;;;;126.60;67.00;;;5.30;80.40;;;;;;4980977;28;20030;-68
2021/03/05 04:35:19;;;;;;;118.93;66.43;;;5.30;79.90;;;;;;4981838;28;20026;-71
2021/03/05 04:37:45;;;;;;;155.82;76.40;;;5.30;79.80;;;;;;4980652;28;20019;-71
2021/03/05 04:40:12;;;;;;;170.40;85.43;;;5.30;79.70;;;;;;4980434;28;20027;-68
2021/03/05 04:42:38;;;;;;;165.27;81.50;;;5.30;80.40;;;;;;4979412;28;20033;-71
2021/03/05 04:45:06;;;;;;;152.50;75.93;;;5.20;80.30;;;;;;4980479;28;20054;-72
2021/03/05 04:47:33;;;;;;;130.82;72.68;;;5.20;81.10;;;;;;4981040;28;20089;-68
2021/03/05 04:49:59;;;;;;;139.15;71.00;;;5.30;80.80;;;;;;4978562;28;20543;-71
2021/03/05 04:52:25;;;;;;;132.43;69.50;;;5.20;81.60;;;;;;4978182;28;20031;-71
2021/03/05 04:54:51;;;;;;;134.57;67.57;;;5.20;82.40;;;;;;4981580;28;20023;-71
2021/03/05 04:57:17;;;;;;;134.48;72.32;;;5.10;81.60;;;;;;4979200;28;20011;-71
2021/03/05 04:59:43;;;;;;;137.77;70.07;;;5.10;81.80;;;;;;4978867;28;20027;-71
2021/03/05 05:02:09;;;;;;;128.45;67.82;;;5.10;82.40;;;;;;4980230;28;20073;-70
2021/03/05 05:04:35;;;;;;;128.73;66.50;;;5.10;80.50;;;;;;4980207;28;20033;-72
2021/03/05 05:07:01;;;;;;;159.88;78.70;;;5.10;81.90;;;;;;4979507;28;20026;-72
2021/03/05 05:09:27;;;;;;;153.68;74.82;;;5.10;81.00;;;;;;4979432;28;20023;-71
2021/03/05 05:11:53;;;;;;;136.30;71.57;;;5.20;85.70;;;;;;4978888;28;20030;-71
2021/03/05 05:14:18;;;;;;;128.25;70.75;;;4.90;82.30;;;;;;4980303;28;20372;-72
2021/03/05 05:16:44;;;;;;;134.38;70.15;;;4.80;82.50;;;;;;4979773;28;19995;-72
2021/03/05 05:19:10;;;;;;;125.25;70.85;;;4.70;83.30;;;;;;4977724;28;20027;-67
2021/03/05 05:21:37;;;;;;;144.35;76.22;;;4.70;84.20;;;;;;4980191;28;20015;-67
2021/03/05 05:24:04;;;;;;;133.05;72.05;;;4.70;83.70;;;;;;4978859;28;20075;-71
2021/03/05 05:26:30;;;;;;;132.50;70.63;;;4.70;84.10;;;;;;4980688;28;20030;-70
2021/03/05 05:28:56;;;;;;;124.32;66.57;;;4.80;83.60;;;;;;4984503;28;20029;-70
2021/03/05 05:31:22;;;;;;;142.07;79.97;;;4.90;82.90;;;;;;4981942;28;20030;-70
2021/03/05 05:33:47;;;;;;;123.05;68.07;;;5.00;82.00;;;;;;4982445;28;20027;-70
2021/03/05 05:36:13;;;;;;;108.07;57.58;;;5.10;82.30;;;;;;4980388;28;20377;-69
2021/03/05 05:38:39;;;;;;;101.47;54.08;;;5.20;80.60;;;;;;4984106;28;20003;-71
2021/03/05 05:41:05;;;;;;;100.40;54.28;;;5.30;80.80;;;;;;4984654;28;20002;-70
2021/03/05 05:43:31;;;;;;;100.82;53.60;;;5.30;81.50;;;;;;4983835;28;20077;-71
2021/03/05 05:46:05;;;;;;;106.35;54.05;;;5.40;81.00;;;;;;4984388;28;20053;-72
2021/03/05 05:48:36;;;;;;;102.78;55.25;;;5.40;80.80;;;;;;4985780;28;20038;-70
2021/03/05 05:51:08;;;;;;;98.35;51.58;;;5.50;81.40;;;;;;4983717;28;20117;-71
2021/03/05 05:53:37;;;;;;;97.38;50.67;;;5.50;79.90;;;;;;4983235;28;20027;-72
2021/03/05 05:56:03;;;;;;;89.47;47.72;;;5.50;79.80;;;;;;4983183;28;20072;-71
2021/03/05 05:58:29;;;;;;;78.45;44.97;;;5.60;79.50;;;;;;4983151;28;20112;-72
2021/03/05 06:00:56;;;;;;;79.88;45.90;;;5.70;78.50;;;;;;4983947;28;20034;-70
2021/03/05 06:03:28;;;;;;;79.03;43.30;;;5.80;79.00;;;;;;4980782;28;20027;-70
2021/03/05 06:05:56;;;;;;;76.75;41.65;;;5.90;79.10;;;;;;4981185;28;20003;-66
2021/03/05 06:08:22;;;;;;;78.68;40.30;;;6.00;77.30;;;;;;4979441;28;20113;-70
2021/03/05 06:10:49;;;;;;;74.30;40.00;;;6.10;77.70;;;;;;4982719;28;20351;-67
2021/03/05 06:13:15;;;;;;;126.53;77.10;;;6.20;77.50;;;;;;4982309;28;20023;-69
2021/03/05 06:15:42;;;;;;;86.13;50.78;;;6.30;76.60;;;;;;4982927;28;20033;-66
2021/03/05 06:18:29;;;;;;;132.18;79.88;;;6.40;75.30;;;;;;4984213;28;20027;-69
2021/03/05 06:20:54;;;;;;;88.25;50.50;;;6.50;75.30;;;;;;4980744;28;20015;-69
2021/03/05 06:23:20;;;;;;;94.65;52.33;;;6.60;75.80;;;;;;4980822;28;20375;-70
2021/03/05 06:25:46;;;;;;;79.95;46.33;;;6.60;76.10;;;;;;4984102;28;20381;-70
2021/03/05 06:28:14;;;;;;;73.07;38.35;;;6.70;75.60;;;;;;4982437;28;20030;-68
2021/03/05 06:30:40;;;;;;;65.13;37.00;;;6.80;76.20;;;;;;4982157;28;20034;-66
2021/03/05 06:33:26;;;;;;;82.82;49.50;;;6.90;75.90;;;;;;4982300;28;20023;-69
2021/03/05 06:35:53;;;;;;;68.28;39.08;;;7.00;75.50;;;;;;4983193;28;20473;-68
2021/03/05 06:38:39;;;;;;;65.63;40.75;;;7.10;75.60;;;;;;4981400;28;20015;-66
2021/03/05 06:41:18;;;;;;;66.97;39.47;;;7.30;75.80;;;;;;4984819;28;20037;-70
2021/03/05 06:43:55;;;;;;;81.13;44.80;;;7.40;75.90;;;;;;4981734;28;20374;-71
2021/03/05 06:46:33;;;;;;;62.88;36.70;;;7.60;75.50;;;;;;4978919;28;20046;-66
2021/03/05 06:49:02;;;;;;;66.50;36.45;;;7.70;75.50;;;;;;4980180;28;20071;-70
2021/03/05 06:51:28;;;;;;;64.00;35.33;;;7.90;81.60;;;;;;4980716;28;20429;-70
2021/03/05 06:54:08;;;;;;;70.57;37.75;;;7.90;73.00;;;;;;4983196;28;20416;-65
2021/03/05 06:56:35;;;;;;;88.90;48.42;;;8.00;73.70;;;;;;4980223;28;20019;-70
2021/03/05 06:59:10;;;;;;;142.82;79.82;;;8.10;74.40;;;;;;4983136;28;20014;-70
2021/03/05 07:01:51;;;;;;;163.77;93.30;;;;;;;;;;4981250;28;20534;-71
2021/03/05 07:04:21;;;;;;;193.38;101.20;;;8.40;74.00;;;;;;4979478;28;20019;-70
2021/03/05 07:06:55;;;;;;;163.23;90.03;;;8.60;74.20;;;;;;4980280;28;20457;-72
2021/03/05 07:09:24;;;;;;;128.27;67.40;;;8.90;73.20;;;;;;4980377;28;20046;-67
2021/03/05 07:11:52;;;;;;;101.90;54.95;;;9.20;72.60;;;;;;4980543;28;20034;-72
2021/03/05 07:14:18;;;;;;;86.43;47.33;;;9.50;69.50;;;;;;4979676;28;20022;-70
2021/03/05 07:16:49;;;;;;;94.63;45.95;;;9.70;70.20;;;;;;4981035;28;20107;-69
2021/03/05 07:19:18;;;;;;;78.15;44.13;;;9.90;70.00;;;;;;4980946;28;20015;-69
2021/03/05 07:21:46;;;;;;;83.53;46.70;;;10.10;68.00;;;;;;4977070;28;20023;-70
2021/03/05 07:24:13;;;;;;;163.35;89.18;;;10.30;68.80;;;;;;4981596;28;20019;-66
2021/03/05 07:26:52;;;;;;;162.45;91.13;;;10.50;67.10;;;;;;4977356;28;20019;-72
2021/03/05 07:29:29;;;;;;;108.78;58.53;;;10.70;66.10;;;;;;4984539;28;20024;-67
2021/03/05 07:32:03;;;;;;;97.05;56.38;;;10.90;62.30;;;;;;4979327;28;20042;-70
2021/03/05 07:34:32;;;;;;;98.75;57.40;;;11.10;62.40;;;;;;4983973;28;20050;-69
2021/03/05 07:37:01;;;;;;;28.27;17.98;;;11.20;63.10;;;;;;4984567;28;20042;-72
2021/03/05 07:39:32;;;;;;;46.55;26.08;;;11.60;56.30;;;;;;4986011;28;20003;-72
2021/03/05 07:41:58;;;;;;;55.22;30.17;;;11.70;57.70;;;;;;4985230;28;20023;-72
2021/03/05 07:44:25;;;;;;;33.83;19.92;;;11.90;58.10;;;;;;4983723;28;20029;-71
2021/03/05 07:46:52;;;;;;;20.52;13.45;;;12.20;54.70;;;;;;4984090;28;20043;-71
2021/03/05 07:49:24;;;;;;;21.95;11.07;;;12.10;52.10;;;;;;4985925;28;20473;-69
2021/03/05 07:51:54;;;;;;;14.90;9.00;;;12.40;47.90;;;;;;4984792;28;20031;-67
2021/03/05 07:54:56;;;;;;;27.30;16.02;;;12.50;48.40;;;;;;4983478;28;20034;-67
2021/03/05 07:57:24;;;;;;;19.40;12.43;;;12.40;50.80;;;;;;4975327;28;20081;-67
2021/03/05 07:59:52;;;;;;;24.35;16.27;;;12.50;48.40;;;;;;4977188;28;20093;-67
2021/03/05 08:02:22;;;;;;;21.92;11.43;;;12.40;49.20;;;;;;4976642;28;20034;-71
2021/03/05 08:04:51;;;;;;;47.13;25.48;;;12.60;46.60;;;;;;4975812;28;20501;-74
2021/03/05 08:07:18;;;;;;;42.92;24.33;;;12.70;46.70;;;;;;4974843;28;20420;-69
2021/03/05 08:09:44;;;;;;;36.58;20.60;;;12.80;47.30;;;;;;4961615;28;20023;-75
2021/03/05 08:15:08;;;;;;;40.22;21.63;;;12.90;46.40;;;;;;4975273;28;20131;-68
2021/03/05 08:17:39;;;;;;;16.77;9.38;;;13.00;45.10;;;;;;4959731;28;20122;-73
2021/03/05 08:20:07;;;;;;;37.72;16.33;;;13.10;44.80;;;;;;4979369;28;20010;-67
2021/03/05 08:22:33;;;;;;;27.02;16.55;;;13.20;45.20;;;;;;4975526;28;20023;-69
2021/03/05 08:25:21;;;;;;;45.17;19.73;;;13.20;45.10;;;;;;4973209;28;20089;-67
2021/03/05 08:27:48;;;;;;;77.22;40.15;;;13.30;44.80;;;;;;4976725;28;20015;-70
2021/03/05 08:30:17;;;;;;;26.38;15.02;;;13.30;45.00;;;;;;4977366;28;20047;-68
2021/03/05 08:32:49;;;;;;;16.50;10.65;;;13.30;45.30;;;;;;4979180;28;20452;-75
2021/03/05 08:35:29;;;;;;;20.27;12.75;;;13.40;45.00;;;;;;4978634;28;20018;-71
2021/03/05 08:38:09;;;;;;;19.60;9.10;;;13.50;44.40;;;;;;4979251;28;20031;-68
2021/03/05 08:40:44;;;;;;;52.10;24.25;;;13.50;43.70;;;;;;4979425;28;20023;-67
2021/03/05 08:43:10;;;;;;;67.75;32.63;;;;;;;;;;4980355;28;20023;-74
2021/03/05 08:45:55;;;;;;;19.52;11.52;;;13.70;44.90;;;;;;4978909;28;20023;-69
2021/03/05 08:48:42;;;;;;;34.47;19.60;;;13.70;44.20;;;;;;4966962;28;20035;-71
2021/03/05 08:51:22;;;;;;;28.58;19.52;;;13.80;44.30;;;;;;4966536;28;20018;-71
2021/03/05 08:53:52;;;;;;;17.90;12.02;;;13.90;44.50;;;;;;4967383;28;20384;-72
2021/03/05 08:56:22;;;;;;;14.05;8.73;;;13.90;44.10;;;;;;4962526;29;20032;-74
2021/03/05 08:59:05;;;;;;;16.13;10.05;;;13.80;42.80;;;;;;4965486;28;20019;-78
2021/03/05 09:01:41;;;;;;;14.93;9.63;;;13.90;44.10;;;;;;4961418;28;20028;-72
2021/03/05 09:04:20;;;;;;;18.45;12.82;;;14.00;43.40;;;;;;4964331;28;20023;-75
2021/03/05 09:06:57;;;;;;;19.73;11.50;;;14.00;45.60;;;;;;4961178;29;20028;-76
2021/03/05 09:09:27;;;;;;;19.25;10.20;;;14.20;44.00;;;;;;4964612;28;20012;-73
2021/03/05 09:12:15;;;;;;;17.17;9.48;;;14.20;42.80;;;;;;4962099;29;20032;-76
2021/03/05 09:14:43;;;;;;;16.48;11.38;;;14.30;42.80;;;;;;4962844;29;20039;-71
2021/03/05 09:17:10;;;;;;;15.70;10.27;;;14.50;43.10;;;;;;4962046;28;20023;-75
2021/03/05 09:19:44;;;;;;;15.13;8.73;;;14.50;44.00;;;;;;4960422;28;20042;-71
2021/03/05 09:22:12;;;;;;;17.92;8.52;;;14.50;42.30;;;;;;4962859;28;20031;-73
2021/03/05 09:25:05;;;;;;;16.15;9.80;;;14.40;43.60;;;;;;4964296;29;20011;-75
2021/03/05 09:27:34;;;;;;;19.65;9.95;;;14.60;43.40;;;;;;4958743;28;20126;-69
2021/03/05 09:30:15;;;;;;;14.88;9.18;;;14.80;43.50;;;;;;4961432;29;20051;-74
2021/03/05 09:32:54;;;;;;;16.55;10.75;;;14.80;42.70;;;;;;4963671;28;20023;-69
2021/03/05 09:35:30;;;;;;;21.58;11.10;;;15.00;43.00;;;;;;4962607;28;20038;-71
2021/03/05 09:37:56;;;;;;;25.20;14.38;;;15.10;43.80;;;;;;4963190;28;20020;-74
2021/03/05 09:40:23;;;;;;;18.25;11.02;;;15.40;45.20;;;;;;4964773;28;20067;-68
2021/03/05 09:42:57;;;;;;;18.38;11.88;;;15.60;42.60;;;;;;4962807;28;20016;-70
2021/03/05 09:45:40;;;;;;;16.73;9.40;;;15.80;42.80;;;;;;4964356;28;20027;-68
2021/03/05 09:48:09;;;;;;;18.63;11.95;;;15.90;41.50;;;;;;4963324;28;20043;-69
2021/03/05 09:50:36;;;;;;;21.13;11.77;;;16.10;42.20;;;;;;4962957;28;20020;-70
2021/03/05 09:53:23;;;;;;;21.20;12.73;;;16.40;42.60;;;;;;4963768;28;20011;-66
2021/03/05 09:55:51;;;;;;;24.08;11.82;;;16.50;43.00;;;;;;4978270;28;20481;-74
2021/03/05 09:58:17;;;;;;;23.67;12.75;;;16.60;41.20;;;;;;4980595;28;20358;-66
2021/03/05 10:00:43;;;;;;;15.25;10.13;;;16.80;42.80;;;;;;4980937;28;20027;-68
2021/03/05 10:03:11;;;;;;;15.50;7.70;;;16.80;42.30;;;;;;4981848;28;20026;-75
2021/03/05 10:05:39;;;;;;;13.65;8.57;;;16.70;42.20;;;;;;4981320;28;20026;-70
2021/03/05 10:08:13;;;;;;;10.65;7.22;;;17.10;42.20;;;;;;4983487;28;20110;-77
2021/03/05 10:11:07;;;;;;;13.90;7.25;;;17.00;42.10;;;;;;4983296;28;20568;-77
2021/03/05 10:13:51;;;;;;;17.80;7.10;;;17.10;43.00;;;;;;4985364;28;20158;-76
2021/03/05 10:16:47;;;;;;;15.87;7.17;;;17.20;43.50;;;;;;4986087;28;20017;-77
2021/03/05 10:19:21;;;;;;;15.43;6.85;;;17.30;42.60;;;;;;4977502;28;20315;-77
2021/03/05 10:21:52;;;;;;;11.30;6.80;;;17.40;44.00;;;;;;4986408;28;20034;-76
2021/03/05 10:24:28;;;;;;;14.73;6.45;;;17.40;43.10;;;;;;4984791;28;20010;-77
2021/03/05 10:27:16;;;;;;;21.77;8.00;;;17.40;42.30;;;;;;4985497;28;20031;-75
2021/03/05 10:29:43;;;;;;;23.13;13.68;;;17.60;42.90;;;;;;4986782;28;20499;-75
2021/03/05 10:32:37;;;;;;;23.15;12.75;;;17.70;42.60;;;;;;4985174;28;20033;-73
2021/03/05 10:35:16;;;;;;;22.15;13.25;;;17.80;42.30;;;;;;4987620;28;20073;-74
2021/03/05 10:37:43;;;;;;;24.40;15.77;;;17.60;41.50;;;;;;4985353;28;20473;-75
2021/03/05 10:40:14;;;;;;;18.60;7.25;;;17.50;41.80;;;;;;4984666;28;20046;-72
2021/03/05 10:42:41;;;;;;;11.27;6.57;;;17.60;41.70;;;;;;4984979;28;20026;-70
2021/03/05 10:45:07;;;;;;;17.63;9.10;;;17.70;42.00;;;;;;4984095;28;20027;-75
2021/03/05 10:47:34;;;;;;;14.55;8.00;;;18.00;41.90;;;;;;4982130;28;20512;-75
2021/03/05 10:50:00;;;;;;;17.48;10.85;;;18.10;41.70;;;;;;4983946;28;20030;-70
2021/03/05 10:52:27;;;;;;;13.57;8.05;;;18.20;42.00;;;;;;4986072;28;20030;-75
2021/03/05 10:54:53;;;;;;;15.20;8.65;;;18.30;43.00;;;;;;4978397;28;20023;-72
2021/03/05 10:57:20;;;;;;;13.68;6.93;;;18.60;42.40;;;;;;4977089;28;20046;-69
2021/03/05 10:59:50;;;;;;;9.88;6.78;;;18.60;42.10;;;;;;4976925;28;20054;-74
2021/03/05 11:02:17;;;;;;;13.73;8.38;;;18.40;43.90;;;;;;4981108;28;20093;-72
2021/03/05 11:04:43;;;;;;;14.18;6.97;;;18.60;43.00;;;;;;4980634;28;20023;-72
2021/03/05 11:07:09;;;;;;;10.25;7.07;;;18.70;43.80;;;;;;4983431;28;20023;-72
2021/03/05 11:09:35;;;;;;;15.20;7.95;;;18.90;43.30;;;;;;4979534;28;20034;-77
2021/03/05 11:12:01;;;;;;;22.02;11.45;;;18.70;42.90;;;;;;4983076;28;20023;-73
2021/03/05 11:14:28;;;;;;;21.35;11.50;;;18.50;43.10;;;;;;4984256;28;20035;-71
2021/03/05 11:16:55;;;;;;;20.67;10.80;;;18.60;45.30;;;;;;4980651;28;20022;-77
2021/03/05 11:19:22;;;;;;;13.05;8.18;;;18.70;43.70;;;;;;4980688;28;20023;-70
2021/03/05 11:21:48;;;;;;;19.77;9.85;;;18.40;42.80;;;;;;4979485;28;20023;-70
2021/03/05 11:24:14;;;;;;;15.30;8.75;;;18.10;42.30;;;;;;4979700;28;20078;-70
2021/03/05 11:26:40;;;;;;;13.02;8.02;;;18.70;43.80;;;;;;4983040;28;20074;-77
2021/03/05 11:29:07;;;;;;;14.60;7.82;;;18.30;42.70;;;;;;4984523;28;20042;-70
2021/03/05 11:31:33;;;;;;;13.73;9.13;;;18.10;43.70;;;;;;4978299;28;20105;-73
2021/03/05 11:33:59;;;;;;;19.33;10.60;;;17.90;44.30;;;;;;4969651;28;20026;-72
2021/03/05 11:36:25;;;;;;;13.13;8.80;;;18.20;44.20;;;;;;4966721;28;20011;-74
2021/03/05 11:38:52;;;;;;;12.00;6.75;;;18.00;44.80;;;;;;4965038;28;20027;-70
2021/03/05 11:41:19;;;;;;;19.38;12.32;;;17.80;44.40;;;;;;4966800;28;20058;-70
2021/03/05 11:43:50;;;;;;;29.73;17.77;;;;;;;;;;4966820;28;20027;-74
2021/03/05 11:46:17;;;;;;;27.45;17.88;;;17.40;45.60;;;;;;4968448;28;20142;-70
2021/03/05 11:48:44;;;;;;;30.63;19.33;;;17.10;46.10;;;;;;4966825;28;20019;-70
2021/03/05 11:51:10;;;;;;;29.55;18.38;;;17.20;47.60;;;;;;4964780;28;20034;-72
2021/03/05 11:53:36;;;;;;;23.60;15.35;;;17.10;46.10;;;;;;4966816;28;20704;-76
2021/03/05 11:56:04;;;;;;;14.63;9.77;;;17.30;46.60;;;;;;4970019;28;20077;-74
2021/03/05 11:58:30;;;;;;;19.08;11.27;;;17.40;46.30;;;;;;4980950;28;20023;-75
2021/03/05 12:00:56;;;;;;;20.67;12.57;;;17.50;46.50;;;;;;4980017;28;20022;-74
2021/03/05 12:03:22;;;;;;;13.98;9.30;;;17.20;45.70;;;;;;4977430;28;20062;-71
2021/03/05 12:05:48;;;;;;;13.25;8.50;;;16.90;45.90;;;;;;4977729;28;20381;-71
2021/03/05 12:08:14;;;;;;;19.30;12.68;;;17.20;46.20;;;;;;4979177;28;20444;-72
2021/03/05 12:10:39;;;;;;;25.67;15.05;;;17.30;46.10;;;;;;4980070;28;20441;-69
2021/03/05 12:13:06;;;;;;;12.45;8.55;;;17.10;46.00;;;;;;4979384;28;20022;-75
2021/03/05 12:15:32;;;;;;;19.75;13.32;;;16.90;45.60;;;;;;4977778;28;20054;-72
2021/03/05 12:17:58;;;;;;;19.50;8.25;;;17.00;46.20;;;;;;4977096;28;20026;-70
2021/03/05 12:20:24;;;;;;;20.35;9.73;;;17.40;44.70;;;;;;4976982;28;20027;-69
2021/03/05 12:22:50;;;;;;;16.20;9.15;;;17.90;44.90;;;;;;4976976;28;20033;-71
2021/03/05 12:25:16;;;;;;;15.13;8.73;;;18.20;44.60;;;;;;4983133;28;20035;-72
2021/03/05 12:27:42;;;;;;;10.18;7.18;;;18.40;45.10;;;;;;4978864;28;20486;-69
2021/03/05 12:30:08;;;;;;;15.50;10.38;;;18.50;43.90;;;;;;4978866;28;20007;-71
2021/03/05 12:32:34;;;;;;;16.40;10.32;;;18.70;44.10;;;;;;4983610;28;20027;-71
2021/03/05 12:35:00;;;;;;;20.35;12.50;;;18.30;43.40;;;;;;4983145;28;20034;-74
2021/03/05 12:37:26;;;;;;;20.77;15.95;;;18.00;44.00;;;;;;4982609;28;20030;-71
2021/03/05 12:39:52;;;;;;;52.67;40.95;;;17.80;44.20;;;;;;4983830;28;20026;-76
2021/03/05 12:42:18;;;;;;;48.97;32.08;;;17.80;44.40;;;;;;4984537;28;20034;-76
2021/03/05 12:44:45;;;;;;;30.80;20.83;;;17.70;47.10;;;;;;4985369;28;20027;-77
2021/03/05 12:47:10;;;;;;;36.40;28.77;;;17.90;45.00;;;;;;4981681;28;20046;-71
2021/03/05 12:49:36;;;;;;;55.75;35.60;;;18.00;44.40;;;;;;4984451;28;20023;-74